sensor_id;sensor_type;location;lat;lon;timestamp;P1;durP1;ratioP1;P2;durP2;ratioP2
43449;SDS011;29041;42.266;23.110;2022-11-09T00:02:04;19.65;;;10.75;;
43449;SDS011;29041;42.266;23.110;2022-11-09T00:04:54;18.45;;;11.00;;
43449;SDS011;29041;42.266;23.110;2022-11-09T00:07:42;18.95;;;9.38;;
43449;SDS011;29041;42.266;23.110;2022-11-09T00:10:30;20.75;;;11.10;;
43449;SDS011;29041;42.266;23.110;2022-11-09T00:13:17;22.40;;;11.60;;
43449;SDS011;29041;42.266;23.110;2022-11-09T00:16:06;18.58;;;10.63;;
43449;SDS011;29041;42.266;23.110;2022-11-09T00:18:55;24.75;;;9.68;;
43449;SDS011;29041;42.266;23.110;2022-11-09T00:21:47;20.95;;;10.35;;
43449;SDS011;29041;42.266;23.110;2022-11-09T00:24:34;21.30;;;12.47;;
43449;SDS011;29041;42.266;23.110;2022-11-09T00:27:22;19.67;;;10.40;;
43449;SDS011;29041;42.266;23.110;2022-11-09T00:30:10;20.27;;;10.98;;
43449;SDS011;29041;42.266;23.110;2022-11-09T00:32:57;19.65;;;9.57;;
43449;SDS011;29041;42.266;23.110;2022-11-09T00:35:45;24.85;;;11.88;;
43449;SDS011;29041;42.266;23.110;2022-11-09T00:38:33;20.27;;;10.43;;
43449;SDS011;29041;42.266;23.110;2022-11-09T00:41:26;17.95;;;9.90;;
43449;SDS011;29041;42.266;23.110;2022-11-09T00:44:14;20.05;;;10.65;;
43449;SDS011;29041;42.266;23.110;2022-11-09T00:47:01;18.95;;;10.38;;
43449;SDS011;29041;42.266;23.110;2022-11-09T00:49:49;21.50;;;10.23;;
43449;SDS011;29041;42.266;23.110;2022-11-09T00:52:36;20.98;;;11.57;;
43449;SDS011;29041;42.266;23.110;2022-11-09T00:55:25;17.42;;;10.57;;
43449;SDS011;29041;42.266;23.110;2022-11-09T00:58:13;22.60;;;10.73;;
43449;SDS011;29041;42.266;23.110;2022-11-09T01:01:04;19.40;;;10.70;;
43449;SDS011;29041;42.266;23.110;2022-11-09T01:03:52;22.15;;;11.25;;
43449;SDS011;29041;42.266;23.110;2022-11-09T01:06:39;23.23;;;11.43;;
43449;SDS011;29041;42.266;23.110;2022-11-09T01:09:27;25.33;;;11.63;;
43449;SDS011;29041;42.266;23.110;2022-11-09T01:12:15;27.25;;;12.07;;
43449;SDS011;29041;42.266;23.110;2022-11-09T01:15:03;24.60;;;11.05;;
43449;SDS011;29041;42.266;23.110;2022-11-09T01:17:50;20.90;;;10.68;;
43449;SDS011;29041;42.266;23.110;2022-11-09T01:20:38;22.10;;;11.80;;
43449;SDS011;29041;42.266;23.110;2022-11-09T01:23:27;21.38;;;11.90;;
43449;SDS011;29041;42.266;23.110;2022-11-09T01:26:14;25.60;;;12.25;;
43449;SDS011;29041;42.266;23.110;2022-11-09T01:29:03;19.83;;;10.52;;
43449;SDS011;29041;42.266;23.110;2022-11-09T01:31:53;19.60;;;11.75;;
43449;SDS011;29041;42.266;23.110;2022-11-09T01:34:40;19.05;;;11.48;;
43449;SDS011;29041;42.266;23.110;2022-11-09T01:37:29;21.33;;;12.48;;
43449;SDS011;29041;42.266;23.110;2022-11-09T01:40:16;19.58;;;10.95;;
43449;SDS011;29041;42.266;23.110;2022-11-09T01:43:05;21.40;;;11.75;;
43449;SDS011;29041;42.266;23.110;2022-11-09T01:45:57;20.88;;;11.30;;
43449;SDS011;29041;42.266;23.110;2022-11-09T01:48:48;20.65;;;10.15;;
43449;SDS011;29041;42.266;23.110;2022-11-09T01:51:40;21.35;;;11.20;;
43449;SDS011;29041;42.266;23.110;2022-11-09T01:54:32;20.48;;;10.88;;
43449;SDS011;29041;42.266;23.110;2022-11-09T01:57:23;20.48;;;10.63;;
43449;SDS011;29041;42.266;23.110;2022-11-09T02:00:14;26.13;;;11.80;;
43449;SDS011;29041;42.266;23.110;2022-11-09T02:03:04;22.40;;;10.77;;
43449;SDS011;29041;42.266;23.110;2022-11-09T02:05:55;19.35;;;10.68;;
43449;SDS011;29041;42.266;23.110;2022-11-09T02:08:45;19.25;;;9.93;;
43449;SDS011;29041;42.266;23.110;2022-11-09T02:11:34;19.50;;;9.95;;
43449;SDS011;29041;42.266;23.110;2022-11-09T02:14:24;22.23;;;10.68;;
43449;SDS011;29041;42.266;23.110;2022-11-09T02:17:13;20.17;;;9.75;;
43449;SDS011;29041;42.266;23.110;2022-11-09T02:22:58;21.35;;;11.40;;
43449;SDS011;29041;42.266;23.110;2022-11-09T02:25:47;19.63;;;10.40;;
43449;SDS011;29041;42.266;23.110;2022-11-09T02:28:38;21.83;;;10.88;;
43449;SDS011;29041;42.266;23.110;2022-11-09T02:31:30;19.48;;;11.27;;
43449;SDS011;29041;42.266;23.110;2022-11-09T02:34:22;21.25;;;10.20;;
43449;SDS011;29041;42.266;23.110;2022-11-09T02:37:11;21.33;;;9.88;;
43449;SDS011;29041;42.266;23.110;2022-11-09T02:39:58;22.67;;;10.85;;
43449;SDS011;29041;42.266;23.110;2022-11-09T02:42:48;17.80;;;9.18;;
43449;SDS011;29041;42.266;23.110;2022-11-09T02:45:35;21.98;;;11.73;;
43449;SDS011;29041;42.266;23.110;2022-11-09T02:48:22;23.40;;;11.13;;
43449;SDS011;29041;42.266;23.110;2022-11-09T02:51:10;19.27;;;10.48;;
43449;SDS011;29041;42.266;23.110;2022-11-09T02:53:58;20.65;;;9.77;;
43449;SDS011;29041;42.266;23.110;2022-11-09T02:56:45;15.38;;;10.20;;
43449;SDS011;29041;42.266;23.110;2022-11-09T02:59:32;21.92;;;10.38;;
43449;SDS011;29041;42.266;23.110;2022-11-09T03:02:20;22.48;;;11.73;;
43449;SDS011;29041;42.266;23.110;2022-11-09T03:05:07;17.70;;;10.77;;
43449;SDS011;29041;42.266;23.110;2022-11-09T03:07:55;22.05;;;10.75;;
43449;SDS011;29041;42.266;23.110;2022-11-09T03:10:43;22.80;;;12.45;;
43449;SDS011;29041;42.266;23.110;2022-11-09T03:13:31;23.40;;;10.55;;
43449;SDS011;29041;42.266;23.110;2022-11-09T03:16:18;19.83;;;10.10;;
43449;SDS011;29041;42.266;23.110;2022-11-09T03:19:06;21.50;;;10.43;;
43449;SDS011;29041;42.266;23.110;2022-11-09T03:21:53;19.27;;;10.57;;
43449;SDS011;29041;42.266;23.110;2022-11-09T03:24:40;23.15;;;10.15;;
43449;SDS011;29041;42.266;23.110;2022-11-09T03:27:29;19.52;;;9.80;;
43449;SDS011;29041;42.266;23.110;2022-11-09T03:30:16;19.33;;;10.35;;
43449;SDS011;29041;42.266;23.110;2022-11-09T03:33:04;22.17;;;11.15;;
43449;SDS011;29041;42.266;23.110;2022-11-09T03:35:54;19.40;;;9.90;;
43449;SDS011;29041;42.266;23.110;2022-11-09T03:38:41;14.55;;;8.77;;
43449;SDS011;29041;42.266;23.110;2022-11-09T03:41:28;19.75;;;10.57;;
43449;SDS011;29041;42.266;23.110;2022-11-09T03:44:17;25.13;;;11.30;;
43449;SDS011;29041;42.266;23.110;2022-11-09T03:47:05;19.70;;;10.48;;
43449;SDS011;29041;42.266;23.110;2022-11-09T03:49:52;18.13;;;9.23;;
43449;SDS011;29041;42.266;23.110;2022-11-09T03:52:39;21.60;;;10.98;;
43449;SDS011;29041;42.266;23.110;2022-11-09T03:55:30;18.73;;;9.48;;
43449;SDS011;29041;42.266;23.110;2022-11-09T03:58:17;18.02;;;9.02;;
43449;SDS011;29041;42.266;23.110;2022-11-09T04:01:05;22.52;;;10.85;;
43449;SDS011;29041;42.266;23.110;2022-11-09T04:03:53;18.52;;;9.75;;
43449;SDS011;29041;42.266;23.110;2022-11-09T04:06:41;18.67;;;10.73;;
43449;SDS011;29041;42.266;23.110;2022-11-09T04:09:28;21.50;;;11.10;;
43449;SDS011;29041;42.266;23.110;2022-11-09T04:12:15;19.00;;;9.73;;
43449;SDS011;29041;42.266;23.110;2022-11-09T04:15:03;20.35;;;11.13;;
43449;SDS011;29041;42.266;23.110;2022-11-09T04:17:56;18.42;;;10.07;;
43449;SDS011;29041;42.266;23.110;2022-11-09T04:20:44;20.52;;;10.82;;
43449;SDS011;29041;42.266;23.110;2022-11-09T04:23:31;20.35;;;9.90;;
43449;SDS011;29041;42.266;23.110;2022-11-09T04:26:19;22.77;;;11.07;;
43449;SDS011;29041;42.266;23.110;2022-11-09T04:29:06;19.77;;;10.70;;
43449;SDS011;29041;42.266;23.110;2022-11-09T04:31:53;22.50;;;10.40;;
43449;SDS011;29041;42.266;23.110;2022-11-09T04:34:42;17.73;;;9.60;;
43449;SDS011;29041;42.266;23.110;2022-11-09T04:37:29;19.70;;;10.75;;
43449;SDS011;29041;42.266;23.110;2022-11-09T04:40:16;20.52;;;10.73;;
43449;SDS011;29041;42.266;23.110;2022-11-09T04:43:04;21.25;;;10.15;;
43449;SDS011;29041;42.266;23.110;2022-11-09T04:45:53;16.70;;;10.05;;
43449;SDS011;29041;42.266;23.110;2022-11-09T04:48:41;21.05;;;10.40;;
43449;SDS011;29041;42.266;23.110;2022-11-09T04:51:30;20.17;;;10.23;;
43449;SDS011;29041;42.266;23.110;2022-11-09T04:54:17;13.85;;;9.18;;
43449;SDS011;29041;42.266;23.110;2022-11-09T04:57:05;20.63;;;9.52;;
43449;SDS011;29041;42.266;23.110;2022-11-09T04:59:52;21.70;;;11.25;;
43449;SDS011;29041;42.266;23.110;2022-11-09T05:02:40;19.05;;;11.05;;
43449;SDS011;29041;42.266;23.110;2022-11-09T05:05:27;23.50;;;10.05;;
43449;SDS011;29041;42.266;23.110;2022-11-09T05:08:16;22.65;;;11.48;;
43449;SDS011;29041;42.266;23.110;2022-11-09T05:11:03;22.67;;;11.70;;
43449;SDS011;29041;42.266;23.110;2022-11-09T05:13:50;24.05;;;10.45;;
43449;SDS011;29041;42.266;23.110;2022-11-09T05:16:38;22.67;;;9.32;;
43449;SDS011;29041;42.266;23.110;2022-11-09T05:19:25;21.30;;;9.57;;
43449;SDS011;29041;42.266;23.110;2022-11-09T05:22:12;22.65;;;9.88;;
43449;SDS011;29041;42.266;23.110;2022-11-09T05:25:18;22.75;;;9.68;;
43449;SDS011;29041;42.266;23.110;2022-11-09T05:28:05;18.58;;;8.30;;
43449;SDS011;29041;42.266;23.110;2022-11-09T05:30:57;18.17;;;9.45;;
43449;SDS011;29041;42.266;23.110;2022-11-09T05:33:46;19.77;;;9.77;;
43449;SDS011;29041;42.266;23.110;2022-11-09T05:36:34;20.83;;;10.95;;
43449;SDS011;29041;42.266;23.110;2022-11-09T05:39:21;19.17;;;10.50;;
43449;SDS011;29041;42.266;23.110;2022-11-09T05:42:10;28.77;;;12.13;;
43449;SDS011;29041;42.266;23.110;2022-11-09T05:44:57;20.17;;;8.93;;
43449;SDS011;29041;42.266;23.110;2022-11-09T05:47:44;34.33;;;13.30;;
43449;SDS011;29041;42.266;23.110;2022-11-09T05:50:31;30.30;;;13.27;;
43449;SDS011;29041;42.266;23.110;2022-11-09T05:53:20;23.52;;;11.80;;
43449;SDS011;29041;42.266;23.110;2022-11-09T05:56:08;31.10;;;12.73;;
43449;SDS011;29041;42.266;23.110;2022-11-09T05:58:58;29.27;;;12.73;;
43449;SDS011;29041;42.266;23.110;2022-11-09T06:01:45;23.92;;;11.90;;
43449;SDS011;29041;42.266;23.110;2022-11-09T06:04:32;28.00;;;14.13;;
43449;SDS011;29041;42.266;23.110;2022-11-09T06:07:19;31.45;;;12.68;;
43449;SDS011;29041;42.266;23.110;2022-11-09T06:10:07;27.45;;;13.75;;
43449;SDS011;29041;42.266;23.110;2022-11-09T06:12:55;31.42;;;13.18;;
43449;SDS011;29041;42.266;23.110;2022-11-09T06:15:43;31.48;;;12.35;;
43449;SDS011;29041;42.266;23.110;2022-11-09T06:18:38;27.25;;;12.35;;
43449;SDS011;29041;42.266;23.110;2022-11-09T06:21:25;29.17;;;12.77;;
43449;SDS011;29041;42.266;23.110;2022-11-09T06:24:13;30.02;;;12.80;;
43449;SDS011;29041;42.266;23.110;2022-11-09T06:27:00;26.90;;;12.57;;
43449;SDS011;29041;42.266;23.110;2022-11-09T06:29:47;27.33;;;12.73;;
43449;SDS011;29041;42.266;23.110;2022-11-09T06:32:36;28.65;;;12.55;;
43449;SDS011;29041;42.266;23.110;2022-11-09T06:35:23;26.35;;;12.02;;
43449;SDS011;29041;42.266;23.110;2022-11-09T06:38:13;23.13;;;12.73;;
43449;SDS011;29041;42.266;23.110;2022-11-09T06:41:02;24.13;;;10.75;;
43449;SDS011;29041;42.266;23.110;2022-11-09T06:43:49;31.73;;;13.82;;
43449;SDS011;29041;42.266;23.110;2022-11-09T06:46:36;23.75;;;12.05;;
43449;SDS011;29041;42.266;23.110;2022-11-09T06:49:25;18.10;;;10.13;;
43449;SDS011;29041;42.266;23.110;2022-11-09T06:52:12;23.10;;;12.60;;
43449;SDS011;29041;42.266;23.110;2022-11-09T06:55:00;22.98;;;10.20;;
43449;SDS011;29041;42.266;23.110;2022-11-09T06:57:47;22.00;;;12.02;;
43449;SDS011;29041;42.266;23.110;2022-11-09T07:00:34;24.30;;;12.35;;
43449;SDS011;29041;42.266;23.110;2022-11-09T07:03:21;19.60;;;11.60;;
43449;SDS011;29041;42.266;23.110;2022-11-09T07:06:11;26.17;;;12.38;;
43449;SDS011;29041;42.266;23.110;2022-11-09T07:08:58;23.48;;;11.88;;
43449;SDS011;29041;42.266;23.110;2022-11-09T07:11:47;22.45;;;11.65;;
43449;SDS011;29041;42.266;23.110;2022-11-09T07:14:34;23.35;;;11.32;;
43449;SDS011;29041;42.266;23.110;2022-11-09T07:17:21;25.23;;;11.18;;
43449;SDS011;29041;42.266;23.110;2022-11-09T07:20:09;18.48;;;10.50;;
43449;SDS011;29041;42.266;23.110;2022-11-09T07:23:00;19.00;;;10.88;;
43449;SDS011;29041;42.266;23.110;2022-11-09T07:25:47;20.67;;;11.98;;
43449;SDS011;29041;42.266;23.110;2022-11-09T07:28:34;19.45;;;10.73;;
43449;SDS011;29041;42.266;23.110;2022-11-09T07:31:22;15.27;;;8.27;;
43449;SDS011;29041;42.266;23.110;2022-11-09T07:34:10;21.40;;;9.93;;
43449;SDS011;29041;42.266;23.110;2022-11-09T07:36:57;19.90;;;9.90;;
43449;SDS011;29041;42.266;23.110;2022-11-09T07:39:46;23.73;;;10.73;;
43449;SDS011;29041;42.266;23.110;2022-11-09T07:42:33;18.73;;;10.05;;
43449;SDS011;29041;42.266;23.110;2022-11-09T07:45:20;17.58;;;9.45;;
43449;SDS011;29041;42.266;23.110;2022-11-09T07:48:08;15.07;;;8.90;;
43449;SDS011;29041;42.266;23.110;2022-11-09T07:50:59;21.27;;;10.30;;
43449;SDS011;29041;42.266;23.110;2022-11-09T07:53:46;18.70;;;9.45;;
43449;SDS011;29041;42.266;23.110;2022-11-09T07:56:35;17.83;;;10.65;;
43449;SDS011;29041;42.266;23.110;2022-11-09T07:59:22;17.63;;;8.80;;
43449;SDS011;29041;42.266;23.110;2022-11-09T08:02:10;19.23;;;9.60;;
43449;SDS011;29041;42.266;23.110;2022-11-09T08:04:57;16.25;;;9.60;;
43449;SDS011;29041;42.266;23.110;2022-11-09T08:07:44;20.02;;;9.60;;
43449;SDS011;29041;42.266;23.110;2022-11-09T08:10:32;20.80;;;9.75;;
43449;SDS011;29041;42.266;23.110;2022-11-09T08:13:22;15.15;;;9.55;;
43449;SDS011;29041;42.266;23.110;2022-11-09T08:16:09;13.55;;;8.50;;
43449;SDS011;29041;42.266;23.110;2022-11-09T08:18:56;19.42;;;10.38;;
43449;SDS011;29041;42.266;23.110;2022-11-09T08:21:43;18.15;;;10.02;;
43449;SDS011;29041;42.266;23.110;2022-11-09T08:24:31;18.13;;;9.55;;
43449;SDS011;29041;42.266;23.110;2022-11-09T08:27:18;20.70;;;10.13;;
43449;SDS011;29041;42.266;23.110;2022-11-09T08:30:10;19.70;;;9.50;;
43449;SDS011;29041;42.266;23.110;2022-11-09T08:32:59;21.70;;;9.77;;
43449;SDS011;29041;42.266;23.110;2022-11-09T08:35:47;19.73;;;9.95;;
43449;SDS011;29041;42.266;23.110;2022-11-09T08:38:34;20.15;;;9.85;;
43449;SDS011;29041;42.266;23.110;2022-11-09T08:41:22;18.30;;;10.93;;
43449;SDS011;29041;42.266;23.110;2022-11-09T08:44:09;21.00;;;11.25;;
43449;SDS011;29041;42.266;23.110;2022-11-09T08:46:57;22.40;;;11.60;;
43449;SDS011;29041;42.266;23.110;2022-11-09T08:49:44;27.55;;;11.27;;
43449;SDS011;29041;42.266;23.110;2022-11-09T08:52:33;21.85;;;13.10;;
43449;SDS011;29041;42.266;23.110;2022-11-09T08:55:20;22.05;;;11.25;;
43449;SDS011;29041;42.266;23.110;2022-11-09T08:58:08;21.50;;;12.23;;
43449;SDS011;29041;42.266;23.110;2022-11-09T09:00:56;20.88;;;11.50;;
43449;SDS011;29041;42.266;23.110;2022-11-09T09:03:44;21.33;;;12.25;;
43449;SDS011;29041;42.266;23.110;2022-11-09T09:06:32;23.02;;;12.75;;
43449;SDS011;29041;42.266;23.110;2022-11-09T09:09:19;19.58;;;10.10;;
43449;SDS011;29041;42.266;23.110;2022-11-09T09:12:07;23.35;;;11.05;;
43449;SDS011;29041;42.266;23.110;2022-11-09T09:14:55;23.05;;;11.63;;
43449;SDS011;29041;42.266;23.110;2022-11-09T09:17:42;24.45;;;12.45;;
43449;SDS011;29041;42.266;23.110;2022-11-09T09:20:31;20.10;;;11.82;;
43449;SDS011;29041;42.266;23.110;2022-11-09T09:23:18;20.60;;;12.27;;
43449;SDS011;29041;42.266;23.110;2022-11-09T09:26:06;20.85;;;10.98;;
43449;SDS011;29041;42.266;23.110;2022-11-09T09:28:53;21.75;;;12.85;;
43449;SDS011;29041;42.266;23.110;2022-11-09T09:31:40;22.48;;;11.52;;
43449;SDS011;29041;42.266;23.110;2022-11-09T09:34:27;19.30;;;10.68;;
43449;SDS011;29041;42.266;23.110;2022-11-09T09:37:16;18.30;;;11.30;;
43449;SDS011;29041;42.266;23.110;2022-11-09T09:40:03;18.85;;;10.40;;
43449;SDS011;29041;42.266;23.110;2022-11-09T09:42:52;19.77;;;10.95;;
43449;SDS011;29041;42.266;23.110;2022-11-09T09:45:42;15.18;;;9.90;;
43449;SDS011;29041;42.266;23.110;2022-11-09T09:48:37;17.05;;;10.45;;
43449;SDS011;29041;42.266;23.110;2022-11-09T09:51:29;18.55;;;10.48;;
43449;SDS011;29041;42.266;23.110;2022-11-09T09:54:23;16.88;;;10.00;;
43449;SDS011;29041;42.266;23.110;2022-11-09T09:57:14;19.50;;;10.43;;
43449;SDS011;29041;42.266;23.110;2022-11-09T10:00:05;17.40;;;10.80;;
43449;SDS011;29041;42.266;23.110;2022-11-09T10:02:54;18.42;;;9.88;;
43449;SDS011;29041;42.266;23.110;2022-11-09T10:05:44;19.73;;;10.45;;
43449;SDS011;29041;42.266;23.110;2022-11-09T10:08:42;28.15;;;13.75;;
43449;SDS011;29041;42.266;23.110;2022-11-09T10:11:40;21.30;;;9.73;;
43449;SDS011;29041;42.266;23.110;2022-11-09T10:14:41;16.38;;;9.82;;
43449;SDS011;29041;42.266;23.110;2022-11-09T10:17:58;37.42;;;12.13;;
43449;SDS011;29041;42.266;23.110;2022-11-09T10:20:59;19.08;;;10.63;;
43449;SDS011;29041;42.266;23.110;2022-11-09T10:24:04;18.17;;;10.98;;
43449;SDS011;29041;42.266;23.110;2022-11-09T10:26:58;17.10;;;9.93;;
43449;SDS011;29041;42.266;23.110;2022-11-09T10:29:47;21.00;;;11.32;;
43449;SDS011;29041;42.266;23.110;2022-11-09T10:32:35;19.45;;;10.60;;
43449;SDS011;29041;42.266;23.110;2022-11-09T10:35:25;20.83;;;11.38;;
43449;SDS011;29041;42.266;23.110;2022-11-09T10:38:19;20.52;;;10.55;;
43449;SDS011;29041;42.266;23.110;2022-11-09T10:41:10;18.52;;;11.75;;
43449;SDS011;29041;42.266;23.110;2022-11-09T10:44:09;17.70;;;10.13;;
43449;SDS011;29041;42.266;23.110;2022-11-09T10:47:00;21.85;;;11.13;;
43449;SDS011;29041;42.266;23.110;2022-11-09T10:50:04;22.35;;;11.77;;
43449;SDS011;29041;42.266;23.110;2022-11-09T10:55:53;21.08;;;11.00;;
43449;SDS011;29041;42.266;23.110;2022-11-09T10:58:44;25.25;;;11.25;;
43449;SDS011;29041;42.266;23.110;2022-11-09T11:01:35;18.15;;;9.88;;
43449;SDS011;29041;42.266;23.110;2022-11-09T11:04:23;19.17;;;11.05;;
43449;SDS011;29041;42.266;23.110;2022-11-09T11:07:12;19.17;;;9.93;;
43449;SDS011;29041;42.266;23.110;2022-11-09T11:10:08;18.67;;;11.32;;
43449;SDS011;29041;42.266;23.110;2022-11-09T11:16:12;16.02;;;9.48;;
43449;SDS011;29041;42.266;23.110;2022-11-09T11:19:02;15.80;;;10.05;;
43449;SDS011;29041;42.266;23.110;2022-11-09T11:28:00;17.60;;;10.55;;
43449;SDS011;29041;42.266;23.110;2022-11-09T11:30:51;20.52;;;11.13;;
43449;SDS011;29041;42.266;23.110;2022-11-09T11:33:38;15.93;;;10.25;;
43449;SDS011;29041;42.266;23.110;2022-11-09T11:36:29;20.95;;;10.85;;
43449;SDS011;29041;42.266;23.110;2022-11-09T11:39:28;14.25;;;9.30;;
43449;SDS011;29041;42.266;23.110;2022-11-09T11:42:29;20.35;;;10.57;;
43449;SDS011;29041;42.266;23.110;2022-11-09T11:45:28;14.73;;;8.95;;
43449;SDS011;29041;42.266;23.110;2022-11-09T11:51:25;15.27;;;9.23;;
43449;SDS011;29041;42.266;23.110;2022-11-09T11:54:23;16.20;;;9.77;;
43449;SDS011;29041;42.266;23.110;2022-11-09T11:57:20;13.43;;;9.57;;
43449;SDS011;29041;42.266;23.110;2022-11-09T12:00:14;15.75;;;8.70;;
43449;SDS011;29041;42.266;23.110;2022-11-09T12:06:37;15.43;;;9.60;;
43449;SDS011;29041;42.266;23.110;2022-11-09T12:09:35;15.75;;;9.68;;
43449;SDS011;29041;42.266;23.110;2022-11-09T12:12:39;17.05;;;10.35;;
43449;SDS011;29041;42.266;23.110;2022-11-09T12:15:36;17.25;;;9.73;;
43449;SDS011;29041;42.266;23.110;2022-11-09T12:18:36;20.52;;;10.02;;
43449;SDS011;29041;42.266;23.110;2022-11-09T12:21:30;16.98;;;10.32;;
43449;SDS011;29041;42.266;23.110;2022-11-09T12:24:25;17.65;;;10.73;;
43449;SDS011;29041;42.266;23.110;2022-11-09T12:27:27;16.20;;;9.70;;
43449;SDS011;29041;42.266;23.110;2022-11-09T12:30:31;15.82;;;10.18;;
43449;SDS011;29041;42.266;23.110;2022-11-09T12:33:40;13.32;;;9.63;;
43449;SDS011;29041;42.266;23.110;2022-11-09T12:36:35;16.10;;;9.05;;
43449;SDS011;29041;42.266;23.110;2022-11-09T12:39:30;12.63;;;8.68;;
43449;SDS011;29041;42.266;23.110;2022-11-09T12:42:22;12.38;;;8.73;;
43449;SDS011;29041;42.266;23.110;2022-11-09T12:45:17;15.32;;;10.15;;
43449;SDS011;29041;42.266;23.110;2022-11-09T12:48:14;16.98;;;9.38;;
43449;SDS011;29041;42.266;23.110;2022-11-09T12:51:06;12.98;;;8.93;;
43449;SDS011;29041;42.266;23.110;2022-11-09T12:53:54;13.73;;;9.82;;
43449;SDS011;29041;42.266;23.110;2022-11-09T12:56:47;14.23;;;8.27;;
43449;SDS011;29041;42.266;23.110;2022-11-09T12:59:44;16.05;;;9.32;;
43449;SDS011;29041;42.266;23.110;2022-11-09T13:02:34;19.42;;;9.32;;
43449;SDS011;29041;42.266;23.110;2022-11-09T13:05:28;20.27;;;10.15;;
43449;SDS011;29041;42.266;23.110;2022-11-09T13:08:17;18.55;;;11.15;;
43449;SDS011;29041;42.266;23.110;2022-11-09T13:11:17;19.42;;;10.10;;
43449;SDS011;29041;42.266;23.110;2022-11-09T13:20:48;16.08;;;9.85;;
43449;SDS011;29041;42.266;23.110;2022-11-09T13:23:37;15.82;;;8.85;;
43449;SDS011;29041;42.266;23.110;2022-11-09T13:29:48;15.45;;;9.45;;
43449;SDS011;29041;42.266;23.110;2022-11-09T13:32:35;13.80;;;9.68;;
43449;SDS011;29041;42.266;23.110;2022-11-09T13:42:17;17.23;;;9.57;;
43449;SDS011;29041;42.266;23.110;2022-11-09T13:45:19;15.40;;;9.35;;
43449;SDS011;29041;42.266;23.110;2022-11-09T13:48:22;19.42;;;11.23;;
43449;SDS011;29041;42.266;23.110;2022-11-09T13:51:15;16.80;;;10.68;;
43449;SDS011;29041;42.266;23.110;2022-11-09T13:54:23;14.77;;;10.63;;
43449;SDS011;29041;42.266;23.110;2022-11-09T13:57:13;14.85;;;9.77;;
43449;SDS011;29041;42.266;23.110;2022-11-09T14:00:03;14.80;;;9.60;;
43449;SDS011;29041;42.266;23.110;2022-11-09T14:06:04;19.42;;;11.02;;
43449;SDS011;29041;42.266;23.110;2022-11-09T14:08:51;15.70;;;9.15;;
43449;SDS011;29041;42.266;23.110;2022-11-09T14:15:05;15.80;;;10.27;;
43449;SDS011;29041;42.266;23.110;2022-11-09T14:18:08;17.65;;;11.63;;
43449;SDS011;29041;42.266;23.110;2022-11-09T14:21:10;16.88;;;10.45;;
43449;SDS011;29041;42.266;23.110;2022-11-09T14:24:07;15.07;;;9.77;;
43449;SDS011;29041;42.266;23.110;2022-11-09T14:27:01;18.42;;;10.73;;
43449;SDS011;29041;42.266;23.110;2022-11-09T14:29:58;18.02;;;9.95;;
43449;SDS011;29041;42.266;23.110;2022-11-09T14:32:47;17.70;;;11.13;;
43449;SDS011;29041;42.266;23.110;2022-11-09T14:35:36;16.25;;;11.52;;
43449;SDS011;29041;42.266;23.110;2022-11-09T14:38:26;20.70;;;11.88;;
43449;SDS011;29041;42.266;23.110;2022-11-09T14:41:17;19.33;;;10.82;;
43449;SDS011;29041;42.266;23.110;2022-11-09T14:44:08;21.80;;;11.93;;
43449;SDS011;29041;42.266;23.110;2022-11-09T14:47:01;23.20;;;13.55;;
43449;SDS011;29041;42.266;23.110;2022-11-09T14:49:50;20.52;;;11.00;;
43449;SDS011;29041;42.266;23.110;2022-11-09T14:52:38;18.58;;;11.63;;
43449;SDS011;29041;42.266;23.110;2022-11-09T14:55:27;21.35;;;12.23;;
43449;SDS011;29041;42.266;23.110;2022-11-09T14:58:16;24.45;;;12.23;;
43449;SDS011;29041;42.266;23.110;2022-11-09T15:01:06;18.73;;;11.95;;
43449;SDS011;29041;42.266;23.110;2022-11-09T15:04:04;24.50;;;12.95;;
43449;SDS011;29041;42.266;23.110;2022-11-09T15:06:54;26.00;;;13.98;;
43449;SDS011;29041;42.266;23.110;2022-11-09T15:09:45;23.13;;;11.77;;
43449;SDS011;29041;42.266;23.110;2022-11-09T15:12:36;18.50;;;11.85;;
43449;SDS011;29041;42.266;23.110;2022-11-09T15:15:24;18.08;;;11.23;;
43449;SDS011;29041;42.266;23.110;2022-11-09T15:18:15;25.98;;;12.80;;
43449;SDS011;29041;42.266;23.110;2022-11-09T15:21:15;34.80;;;13.43;;
43449;SDS011;29041;42.266;23.110;2022-11-09T15:24:12;24.25;;;14.63;;
43449;SDS011;29041;42.266;23.110;2022-11-09T15:27:00;25.00;;;15.52;;
43449;SDS011;29041;42.266;23.110;2022-11-09T15:29:49;28.13;;;14.98;;
43449;SDS011;29041;42.266;23.110;2022-11-09T15:32:37;23.50;;;13.32;;
43449;SDS011;29041;42.266;23.110;2022-11-09T15:35:25;28.75;;;15.20;;
43449;SDS011;29041;42.266;23.110;2022-11-09T15:38:26;33.05;;;15.90;;
43449;SDS011;29041;42.266;23.110;2022-11-09T15:41:20;37.47;;;16.90;;
43449;SDS011;29041;42.266;23.110;2022-11-09T15:44:09;35.53;;;16.45;;
43449;SDS011;29041;42.266;23.110;2022-11-09T15:47:00;54.03;;;31.92;;
43449;SDS011;29041;42.266;23.110;2022-11-09T15:49:47;37.70;;;19.42;;
43449;SDS011;29041;42.266;23.110;2022-11-09T15:52:34;28.77;;;16.27;;
43449;SDS011;29041;42.266;23.110;2022-11-09T15:55:21;45.35;;;25.17;;
43449;SDS011;29041;42.266;23.110;2022-11-09T15:58:10;32.30;;;18.17;;
43449;SDS011;29041;42.266;23.110;2022-11-09T16:00:59;26.90;;;16.35;;
43449;SDS011;29041;42.266;23.110;2022-11-09T16:03:48;34.88;;;17.73;;
43449;SDS011;29041;42.266;23.110;2022-11-09T16:06:35;40.80;;;18.33;;
43449;SDS011;29041;42.266;23.110;2022-11-09T16:09:22;36.63;;;17.38;;
43449;SDS011;29041;42.266;23.110;2022-11-09T16:12:09;36.55;;;18.30;;
43449;SDS011;29041;42.266;23.110;2022-11-09T16:14:57;39.55;;;21.70;;
43449;SDS011;29041;42.266;23.110;2022-11-09T16:17:47;45.05;;;20.80;;
43449;SDS011;29041;42.266;23.110;2022-11-09T16:20:37;42.38;;;20.83;;
43449;SDS011;29041;42.266;23.110;2022-11-09T16:23:24;31.65;;;19.05;;
43449;SDS011;29041;42.266;23.110;2022-11-09T16:26:13;43.35;;;22.67;;
43449;SDS011;29041;42.266;23.110;2022-11-09T16:29:01;36.45;;;19.58;;
43449;SDS011;29041;42.266;23.110;2022-11-09T16:31:48;43.40;;;21.40;;
43449;SDS011;29041;42.266;23.110;2022-11-09T16:34:35;37.67;;;21.35;;
43449;SDS011;29041;42.266;23.110;2022-11-09T16:37:24;39.75;;;21.73;;
43449;SDS011;29041;42.266;23.110;2022-11-09T16:40:12;40.63;;;20.40;;
43449;SDS011;29041;42.266;23.110;2022-11-09T16:43:02;38.00;;;21.10;;
43449;SDS011;29041;42.266;23.110;2022-11-09T16:45:49;39.92;;;21.10;;
43449;SDS011;29041;42.266;23.110;2022-11-09T16:48:37;36.88;;;21.85;;
43449;SDS011;29041;42.266;23.110;2022-11-09T16:51:24;39.63;;;19.08;;
43449;SDS011;29041;42.266;23.110;2022-11-09T16:54:13;37.08;;;19.83;;
43449;SDS011;29041;42.266;23.110;2022-11-09T16:57:00;38.40;;;21.42;;
43449;SDS011;29041;42.266;23.110;2022-11-09T16:59:47;45.97;;;21.63;;
43449;SDS011;29041;42.266;23.110;2022-11-09T17:02:34;38.80;;;20.50;;
43449;SDS011;29041;42.266;23.110;2022-11-09T17:05:21;40.42;;;20.52;;
43449;SDS011;29041;42.266;23.110;2022-11-09T17:08:09;45.75;;;22.13;;